createdAt,value
2023-07-03T00:01:05.242Z,21.61
2023-07-03T00:03:34.257Z,21.63
2023-07-03T00:06:03.273Z,21.68
2023-07-03T00:08:33.847Z,21.56
2023-07-03T00:11:03.516Z,21.59
2023-07-03T00:13:32.983Z,21.62
2023-07-03T00:16:02.243Z,21.56
2023-07-03T00:18:32.008Z,21.59
2023-07-03T00:21:01.010Z,21.57
2023-07-03T00:23:30.010Z,21.53
2023-07-03T00:26:00.425Z,21.53
2023-07-03T00:28:29.412Z,21.53
2023-07-03T00:30:58.455Z,21.53
2023-07-03T00:33:27.490Z,21.53
2023-07-03T00:35:56.518Z,21.52
2023-07-03T00:38:25.565Z,21.51
2023-07-03T00:40:54.615Z,21.52
2023-07-03T00:43:25.527Z,21.50
2023-07-03T00:45:54.856Z,21.52
2023-07-03T00:48:24.051Z,21.50
2023-07-03T00:50:53.120Z,21.50
2023-07-03T00:53:22.194Z,21.48
2023-07-03T00:55:51.445Z,21.40
2023-07-03T00:58:20.944Z,21.40
2023-07-03T01:01:00.091Z,21.47
2023-07-03T01:03:37.624Z,21.43
2023-07-03T01:06:12.536Z,21.38
2023-07-03T01:08:43.695Z,21.42
2023-07-03T01:11:12.893Z,21.42
2023-07-03T01:13:44.603Z,21.39
2023-07-03T01:16:16.201Z,21.36
2023-07-03T01:18:48.850Z,21.34
2023-07-03T01:21:24.021Z,21.38
2023-07-03T01:23:59.845Z,21.46
2023-07-03T01:26:30.346Z,21.40
2023-07-03T01:29:03.240Z,21.37
2023-07-03T01:31:36.454Z,21.41
2023-07-03T01:34:10.103Z,21.36
2023-07-03T01:36:42.382Z,21.36
2023-07-03T01:39:11.905Z,21.36
2023-07-03T01:41:42.936Z,21.35
2023-07-03T01:44:12.008Z,21.37
2023-07-03T01:46:41.094Z,21.33
2023-07-03T01:49:14.517Z,21.36
2023-07-03T01:51:52.545Z,21.35
2023-07-03T01:54:31.878Z,21.31
2023-07-03T01:57:05.272Z,21.25
2023-07-03T01:59:36.691Z,21.25
2023-07-03T02:02:12.524Z,21.34
2023-07-03T02:04:51.540Z,21.30
2023-07-03T02:07:22.606Z,21.31
2023-07-03T02:09:51.960Z,21.26
2023-07-03T02:12:22.536Z,21.22
2023-07-03T02:14:51.645Z,21.29
2023-07-03T02:17:20.699Z,21.27
2023-07-03T02:19:49.860Z,21.26
2023-07-03T02:22:18.951Z,21.28
2023-07-03T02:24:48.121Z,21.25
2023-07-03T02:27:17.184Z,21.23
2023-07-03T02:29:47.785Z,21.17
2023-07-03T02:32:16.814Z,21.28
2023-07-03T02:34:46.108Z,21.25
2023-07-03T02:37:15.322Z,21.21
2023-07-03T02:39:44.339Z,21.19
2023-07-03T02:42:14.367Z,21.20
2023-07-03T02:44:43.451Z,21.21
2023-07-03T02:47:14.603Z,21.20
2023-07-03T02:49:44.198Z,21.18
2023-07-03T02:52:13.715Z,21.23
2023-07-03T02:54:42.819Z,21.18
2023-07-03T02:57:13.239Z,21.16
2023-07-03T02:59:42.412Z,21.14
2023-07-03T03:02:11.466Z,21.18
2023-07-03T03:04:41.927Z,21.16
2023-07-03T03:07:10.995Z,21.15
2023-07-03T03:09:41.261Z,21.15
2023-07-03T03:12:11.333Z,21.14
2023-07-03T03:14:40.554Z,21.14
2023-07-03T03:17:09.603Z,21.12
2023-07-03T03:19:38.691Z,21.11
2023-07-03T03:22:09.230Z,21.11
2023-07-03T03:24:38.280Z,21.08
2023-07-03T03:27:07.985Z,21.06
2023-07-03T03:29:39.277Z,21.07
2023-07-03T03:32:09.605Z,21.09
2023-07-03T03:34:39.377Z,21.06
2023-07-03T03:37:09.786Z,21.02
2023-07-03T03:39:39.841Z,21.05
2023-07-03T03:42:10.697Z,21.05
2023-07-03T03:44:40.750Z,21.09
2023-07-03T03:47:09.998Z,21.06
2023-07-03T03:49:40.589Z,21.03
2023-07-03T03:52:11.667Z,21.07
2023-07-03T03:54:40.754Z,20.97
2023-07-03T03:57:09.805Z,21.02
2023-07-03T03:59:39.194Z,20.97
2023-07-03T04:02:09.621Z,20.93
2023-07-03T04:04:38.848Z,20.99
2023-07-03T04:07:08.107Z,21.00
2023-07-03T04:09:38.592Z,21.01
2023-07-03T04:12:08.787Z,21.03
2023-07-03T04:14:39.246Z,20.99
2023-07-03T04:17:10.266Z,21.02
2023-07-03T04:19:39.379Z,20.97
2023-07-03T04:22:08.496Z,20.99
2023-07-03T04:24:38.881Z,21.01
2023-07-03T04:27:09.522Z,20.94
2023-07-03T04:29:38.670Z,21.00
2023-07-03T04:32:09.760Z,21.01
2023-07-03T04:34:38.889Z,21.04
2023-07-03T04:37:09.597Z,21.06
2023-07-03T04:39:40.049Z,21.06
2023-07-03T04:42:14.434Z,21.06
2023-07-03T04:44:44.445Z,21.08
2023-07-03T04:47:17.805Z,21.09
2023-07-03T04:49:50.318Z,20.95
2023-07-03T04:52:20.949Z,21.00
2023-07-03T04:54:51.392Z,20.99
2023-07-03T04:57:20.392Z,21.01
2023-07-03T04:59:49.852Z,20.99
2023-07-03T05:02:19.339Z,20.95
2023-07-03T05:04:48.792Z,20.94
2023-07-03T05:07:20.243Z,20.89
2023-07-03T05:09:49.256Z,20.90
2023-07-03T05:12:19.634Z,20.98
2023-07-03T05:14:48.851Z,20.98
2023-07-03T05:17:17.852Z,21.02
2023-07-03T05:19:47.011Z,20.93
2023-07-03T05:22:16.029Z,21.01
2023-07-03T05:24:45.056Z,21.07
2023-07-03T05:27:14.080Z,20.99
2023-07-03T05:29:44.475Z,20.99
2023-07-03T05:32:13.472Z,21.08
2023-07-03T05:34:42.490Z,21.15
2023-07-03T05:37:11.566Z,21.11
2023-07-03T05:39:40.627Z,21.10
2023-07-03T05:42:10.259Z,21.15
2023-07-03T05:44:39.308Z,21.16
2023-07-03T05:47:09.961Z,21.14
2023-07-03T05:49:42.364Z,21.14
2023-07-03T05:52:12.773Z,21.18
2023-07-03T05:54:41.854Z,21.20
2023-07-03T05:57:13.489Z,21.20
2023-07-03T05:59:43.023Z,21.17
2023-07-03T06:02:16.074Z,21.22
2023-07-03T06:04:45.198Z,21.20
2023-07-03T06:07:14.748Z,21.19
2023-07-03T06:09:44.046Z,21.21
2023-07-03T06:12:13.149Z,21.21
2023-07-03T06:14:42.196Z,21.11
2023-07-03T06:17:11.335Z,21.18
2023-07-03T06:19:41.960Z,21.20
2023-07-03T06:22:11.056Z,21.09
2023-07-03T06:24:40.540Z,21.13
2023-07-03T06:27:09.652Z,21.15
2023-07-03T06:29:38.763Z,21.16
2023-07-03T06:32:09.241Z,21.17
2023-07-03T06:34:38.623Z,21.10
2023-07-03T06:37:09.154Z,21.25
2023-07-03T06:39:40.704Z,21.22
2023-07-03T06:42:11.270Z,21.28
2023-07-03T06:44:44.933Z,21.20
2023-07-03T06:47:13.951Z,21.26
2023-07-03T06:49:43.004Z,21.30
2023-07-03T06:52:13.437Z,21.39
2023-07-03T06:54:42.734Z,21.35
2023-07-03T06:57:11.806Z,21.31
2023-07-03T06:59:40.929Z,21.40
2023-07-03T07:02:10.064Z,21.43
2023-07-03T07:04:39.149Z,21.31
2023-07-03T07:07:08.182Z,21.42
2023-07-03T07:09:38.601Z,21.31
2023-07-03T07:12:08.261Z,21.45
2023-07-03T07:14:38.143Z,21.39
2023-07-03T07:17:07.268Z,21.41
2023-07-03T07:19:36.358Z,21.48
2023-07-03T07:22:05.825Z,21.49
2023-07-03T07:24:34.840Z,21.46
2023-07-03T07:27:06.340Z,21.49
2023-07-03T07:29:36.018Z,21.60
2023-07-03T07:32:05.578Z,21.58
2023-07-03T07:34:34.641Z,21.50
2023-07-03T07:37:03.704Z,21.50
2023-07-03T07:39:32.911Z,21.45
2023-07-03T07:42:01.963Z,21.54
2023-07-03T07:44:32.378Z,21.40
2023-07-03T07:47:01.504Z,21.20
2023-07-03T07:49:30.523Z,21.17
2023-07-03T07:51:59.541Z,21.00
2023-07-03T07:54:29.091Z,20.94
2023-07-03T07:56:58.663Z,20.93
2023-07-03T07:59:28.309Z,20.90
2023-07-03T08:01:58.741Z,20.81
2023-07-03T08:04:28.564Z,20.78
2023-07-03T08:06:57.618Z,20.79
2023-07-03T08:09:26.665Z,21.02
2023-07-03T08:11:55.726Z,21.09
2023-07-03T08:14:24.879Z,21.09
2023-07-03T08:16:54.046Z,21.07
2023-07-03T08:19:24.769Z,21.20
2023-07-03T08:21:56.571Z,21.08
2023-07-03T08:24:25.690Z,21.07
2023-07-03T08:26:55.565Z,21.18
2023-07-03T08:29:24.607Z,21.20
2023-07-03T08:31:53.755Z,21.19
2023-07-03T08:34:24.152Z,21.27
2023-07-03T08:39:25.344Z,21.14
2023-07-03T08:42:03.647Z,21.17
2023-07-03T08:44:32.825Z,21.02
2023-07-03T08:47:11.283Z,20.85
2023-07-03T08:49:46.548Z,20.77
2023-07-03T08:52:24.044Z,20.76
2023-07-03T08:54:55.608Z,20.73
2023-07-03T08:57:27.162Z,20.86
2023-07-03T08:59:56.445Z,20.94
2023-07-03T09:02:35.137Z,20.97
2023-07-03T09:05:26.261Z,20.96
2023-07-03T09:08:00.965Z,21.00
2023-07-03T09:10:37.333Z,21.00
2023-07-03T09:13:12.596Z,21.06
2023-07-03T09:15:50.354Z,21.10
2023-07-03T09:18:25.288Z,21.05
2023-07-03T09:20:57.940Z,21.04
2023-07-03T09:23:31.973Z,21.04
2023-07-03T09:26:07.357Z,21.09
2023-07-03T09:28:42.191Z,21.07
2023-07-03T09:31:12.064Z,21.07
2023-07-03T09:33:42.912Z,21.11
2023-07-03T09:36:26.575Z,21.11
2023-07-03T09:38:55.703Z,21.11
2023-07-03T09:41:31.566Z,21.17
2023-07-03T09:44:01.268Z,21.15
2023-07-03T09:46:31.832Z,21.10
2023-07-03T09:49:03.873Z,21.14
2023-07-03T09:51:38.936Z,21.19
2023-07-03T09:54:20.544Z,21.21
2023-07-03T09:56:50.730Z,21.21
2023-07-03T09:59:20.859Z,21.22
2023-07-03T10:07:10.082Z,21.07
2023-07-03T10:12:29.300Z,21.12
2023-07-03T10:15:04.232Z,21.05
2023-07-03T10:17:39.498Z,21.00
2023-07-03T10:20:15.515Z,21.02
2023-07-03T10:22:46.623Z,21.02
2023-07-03T10:25:22.706Z,21.03
2023-07-03T10:27:58.861Z,21.06
2023-07-03T10:30:35.291Z,21.07
2023-07-03T10:33:12.941Z,21.09
2023-07-03T10:35:45.003Z,21.03
2023-07-03T10:38:24.560Z,21.15
2023-07-03T10:41:01.606Z,21.20
2023-07-03T10:43:39.196Z,21.25
2023-07-03T10:46:16.392Z,21.27
2023-07-03T10:48:47.820Z,21.25
2023-07-03T10:51:24.695Z,21.31
2023-07-03T10:54:01.574Z,21.33
2023-07-03T10:56:39.991Z,21.32
2023-07-03T10:59:17.891Z,21.31
2023-07-03T11:01:58.099Z,21.35
2023-07-03T11:04:41.092Z,21.34
2023-07-03T11:07:20.684Z,21.34
2023-07-03T11:10:01.699Z,21.40
2023-07-03T11:12:39.277Z,21.45
2023-07-03T11:15:23.800Z,21.45
2023-07-03T11:23:21.758Z,21.38
2023-07-03T11:28:37.737Z,21.51
2023-07-03T11:31:08.659Z,21.50
2023-07-03T11:36:50.329Z,21.50
2023-07-03T11:44:49.310Z,21.44
2023-07-03T11:47:26.038Z,21.36
2023-07-03T11:50:00.085Z,21.18
2023-07-03T11:52:31.986Z,21.18
2023-07-03T11:55:04.647Z,21.39
2023-07-03T11:57:39.611Z,21.48
2023-07-03T12:00:19.484Z,21.58
2023-07-03T12:02:58.490Z,21.61
2023-07-03T12:05:59.951Z,21.66
2023-07-03T12:08:43.322Z,21.68
2023-07-03T12:11:15.805Z,21.70
2023-07-03T12:13:57.055Z,21.69
2023-07-03T12:16:30.911Z,21.73
2023-07-03T12:19:04.298Z,21.71
2023-07-03T12:21:48.947Z,21.56
2023-07-03T12:24:20.507Z,21.51
2023-07-03T12:26:55.644Z,21.59
2023-07-03T12:29:26.220Z,21.66
2023-07-03T12:31:57.462Z,21.71
2023-07-03T12:34:28.189Z,21.74
2023-07-03T12:37:02.338Z,21.73
2023-07-03T12:39:32.887Z,21.83
2023-07-03T12:42:11.029Z,21.79
2023-07-03T12:44:41.654Z,21.81
2023-07-03T12:47:14.690Z,21.83
2023-07-03T12:49:56.635Z,21.86
2023-07-03T12:52:26.934Z,21.90
2023-07-03T12:57:31.128Z,21.88
2023-07-03T13:00:02.287Z,21.96
2023-07-03T13:02:33.380Z,21.95
2023-07-03T13:05:06.724Z,21.95
2023-07-03T13:07:36.957Z,21.99
2023-07-03T13:10:14.019Z,21.93
2023-07-03T13:12:43.459Z,22.00
2023-07-03T13:15:16.252Z,22.01
2023-07-03T13:17:46.802Z,22.02
2023-07-03T13:20:22.954Z,22.01
2023-07-03T13:22:55.219Z,22.04
2023-07-03T13:25:27.824Z,22.01
2023-07-03T13:28:00.473Z,22.01
2023-07-03T13:30:36.803Z,22.00
2023-07-03T13:33:08.955Z,22.04
2023-07-03T13:35:41.657Z,22.05
2023-07-03T13:38:32.582Z,22.03
2023-07-03T13:41:03.057Z,22.08
2023-07-03T13:43:34.298Z,22.11
2023-07-03T13:46:04.881Z,22.10
2023-07-03T13:48:33.974Z,22.07
2023-07-03T13:51:03.020Z,22.12
2023-07-03T13:53:34.470Z,22.14
2023-07-03T13:56:03.830Z,22.12
2023-07-03T13:58:33.079Z,22.15
2023-07-03T14:01:10.452Z,22.15
2023-07-03T14:03:48.013Z,22.11
2023-07-03T14:06:17.995Z,22.12
2023-07-03T14:08:47.013Z,22.06
2023-07-03T14:11:16.917Z,22.01
2023-07-03T14:13:47.885Z,22.02
2023-07-03T14:16:17.014Z,21.98
2023-07-03T14:18:47.556Z,21.98
2023-07-03T14:21:18.406Z,21.98
2023-07-03T14:23:49.883Z,21.98
2023-07-03T14:26:19.232Z,21.99
2023-07-03T14:28:48.263Z,21.94
2023-07-03T14:31:19.232Z,21.92
2023-07-03T14:33:49.656Z,21.88
2023-07-03T14:36:18.846Z,21.86
2023-07-03T14:38:48.003Z,21.84
2023-07-03T14:41:17.046Z,21.82
2023-07-03T14:43:46.111Z,21.82
2023-07-03T14:46:15.150Z,21.81
2023-07-03T14:48:44.240Z,21.82
2023-07-03T14:51:14.674Z,21.80
2023-07-03T14:53:43.720Z,21.84
2023-07-03T14:56:12.781Z,21.90
2023-07-03T14:58:41.821Z,21.91
2023-07-03T15:01:10.943Z,21.89
2023-07-03T15:03:40.167Z,21.90
2023-07-03T15:06:10.205Z,21.89
2023-07-03T15:08:40.662Z,21.86
2023-07-03T15:11:15.519Z,21.80
2023-07-03T15:13:44.622Z,21.78
2023-07-03T15:16:13.756Z,21.79
2023-07-03T15:18:42.860Z,21.75
2023-07-03T15:21:11.943Z,21.73
2023-07-03T15:23:42.390Z,21.72
2023-07-03T15:26:11.485Z,21.71
2023-07-03T15:28:40.510Z,21.71
2023-07-03T15:31:10.160Z,21.71
2023-07-03T15:33:39.332Z,21.69
2023-07-03T15:36:08.474Z,21.68
2023-07-03T15:38:37.926Z,21.66
2023-07-03T15:41:08.378Z,21.67
2023-07-03T15:43:37.433Z,21.70
2023-07-03T15:46:09.315Z,21.69
2023-07-03T15:48:39.264Z,21.70
2023-07-03T15:51:10.595Z,21.71
2023-07-03T15:53:40.201Z,21.73
2023-07-03T15:56:12.549Z,21.74
2023-07-03T15:58:44.093Z,21.88
2023-07-03T16:01:15.748Z,22.02
2023-07-03T16:03:44.961Z,22.11
2023-07-03T16:06:16.306Z,22.23
2023-07-03T16:08:46.642Z,22.29
2023-07-03T16:11:19.572Z,22.34
2023-07-03T16:13:49.789Z,22.39
2023-07-03T16:16:21.343Z,22.46
2023-07-03T16:18:51.861Z,22.47
2023-07-03T16:21:23.943Z,22.52
2023-07-03T16:23:55.887Z,22.52
2023-07-03T16:26:27.500Z,22.48
2023-07-03T16:28:57.088Z,22.53
2023-07-03T16:31:28.010Z,22.56
2023-07-03T16:34:00.119Z,22.60
2023-07-03T16:36:31.213Z,22.66
2023-07-03T16:39:04.047Z,22.72
2023-07-03T16:41:36.850Z,22.75
2023-07-03T16:44:06.291Z,22.77
2023-07-03T16:46:38.602Z,22.78
2023-07-03T16:49:09.495Z,22.82
2023-07-03T16:51:38.513Z,22.84
2023-07-03T16:54:08.117Z,22.91
2023-07-03T16:56:38.574Z,22.93
2023-07-03T16:59:07.638Z,22.97
2023-07-03T17:01:36.730Z,23.00
2023-07-03T17:04:05.801Z,22.99
2023-07-03T17:06:36.520Z,23.02
2023-07-03T17:09:07.344Z,23.02
2023-07-03T17:11:36.360Z,23.11
2023-07-03T17:14:06.784Z,23.11
2023-07-03T17:16:36.189Z,23.14
2023-07-03T17:19:05.365Z,23.17
2023-07-03T17:21:34.421Z,23.16
2023-07-03T17:24:05.521Z,23.19
2023-07-03T17:26:34.833Z,23.19
2023-07-03T17:29:05.206Z,23.21
2023-07-03T17:31:35.827Z,23.24
2023-07-03T17:34:05.151Z,23.18
2023-07-03T17:36:35.052Z,23.14
2023-07-03T17:39:05.216Z,23.12
2023-07-03T17:41:35.719Z,23.13
2023-07-03T17:44:04.858Z,23.09
2023-07-03T17:46:35.229Z,23.08
2023-07-03T17:49:04.314Z,23.05
2023-07-03T17:51:35.477Z,22.99
2023-07-03T17:54:04.783Z,22.97
2023-07-03T17:56:33.923Z,22.99
2023-07-03T17:59:03.081Z,22.96
2023-07-03T18:01:32.267Z,22.95
2023-07-03T18:04:03.977Z,22.91
2023-07-03T18:06:35.765Z,22.79
2023-07-03T18:09:05.264Z,22.73
2023-07-03T18:11:34.314Z,22.68
2023-07-03T18:14:03.816Z,22.65
2023-07-03T18:16:32.941Z,22.62
2023-07-03T18:19:03.494Z,22.60
2023-07-03T18:21:32.576Z,22.56
2023-07-03T18:24:03.848Z,22.54
2023-07-03T18:26:32.910Z,22.51
2023-07-03T18:29:01.986Z,22.48
2023-07-03T18:31:31.071Z,22.45
2023-07-03T18:34:00.203Z,22.43
2023-07-03T18:36:30.594Z,22.42
2023-07-03T18:39:00.619Z,22.40
2023-07-03T18:41:29.762Z,22.38
2023-07-03T18:43:58.912Z,22.37
2023-07-03T18:46:28.456Z,22.36
2023-07-03T18:48:57.601Z,22.36
2023-07-03T18:51:27.176Z,22.34
2023-07-03T18:53:57.952Z,22.32
2023-07-03T18:56:27.395Z,22.29
2023-07-03T18:58:57.090Z,22.28
2023-07-03T19:01:26.344Z,22.27
2023-07-03T19:03:56.222Z,22.25
2023-07-03T19:06:26.612Z,22.23
2023-07-03T19:08:57.630Z,22.22
2023-07-03T19:11:27.999Z,22.19
2023-07-03T19:13:57.300Z,22.18
2023-07-03T19:16:27.053Z,22.15
2023-07-03T19:18:56.432Z,22.15
2023-07-03T19:21:25.776Z,22.14
2023-07-03T19:23:56.915Z,22.12
2023-07-03T19:26:30.642Z,22.10
2023-07-03T19:29:01.686Z,22.09
2023-07-03T19:31:31.350Z,22.07
2023-07-03T19:34:03.552Z,22.07
2023-07-03T19:36:32.765Z,22.06
2023-07-03T19:39:02.354Z,22.05
2023-07-03T19:41:32.908Z,22.04
2023-07-03T19:44:05.718Z,22.04
2023-07-03T19:46:35.764Z,22.01
2023-07-03T19:49:04.984Z,22.01
2023-07-03T19:51:34.165Z,22.01
2023-07-03T19:54:03.590Z,22.01
2023-07-03T19:56:35.289Z,22.00
2023-07-03T19:59:04.438Z,21.99
2023-07-03T20:01:33.856Z,21.94
2023-07-03T20:04:04.592Z,21.89
2023-07-03T20:06:34.296Z,21.86
2023-07-03T20:09:03.605Z,21.83
2023-07-03T20:11:35.672Z,21.81
2023-07-03T20:14:05.637Z,21.80
2023-07-03T20:16:38.164Z,21.78
2023-07-03T20:19:07.732Z,21.76
2023-07-03T20:21:36.788Z,21.75
2023-07-03T20:24:06.348Z,21.74
2023-07-03T20:26:37.124Z,21.72
2023-07-03T20:29:06.161Z,21.70
2023-07-03T20:31:35.445Z,21.68
2023-07-03T20:34:05.010Z,21.67
2023-07-03T20:36:35.481Z,21.66
2023-07-03T20:39:06.355Z,21.64
2023-07-03T20:41:37.013Z,21.62
2023-07-03T20:44:06.453Z,21.61
2023-07-03T20:46:35.501Z,21.60
2023-07-03T20:49:04.895Z,21.62
2023-07-03T20:51:35.023Z,21.63
2023-07-03T20:54:12.108Z,21.67
2023-07-03T20:56:42.847Z,21.68
2023-07-03T20:59:11.926Z,21.69
2023-07-03T21:01:41.166Z,21.70
2023-07-03T21:04:10.251Z,21.70
2023-07-03T21:06:40.034Z,21.69
2023-07-03T21:09:09.075Z,21.69
2023-07-03T21:11:43.770Z,21.70
2023-07-03T21:14:16.276Z,21.69
2023-07-03T21:16:45.415Z,21.69
2023-07-03T21:19:15.211Z,21.69
2023-07-03T21:21:44.361Z,21.69
2023-07-03T21:24:14.415Z,21.69
2023-07-03T21:26:43.457Z,21.69
2023-07-03T21:29:12.482Z,21.68
2023-07-03T21:31:43.062Z,21.68
2023-07-03T21:34:13.246Z,21.68
2023-07-03T21:36:42.437Z,21.67
2023-07-03T21:39:12.543Z,21.66
2023-07-03T21:41:43.126Z,21.64
2023-07-03T21:44:14.394Z,21.64
2023-07-03T21:46:45.465Z,21.63
2023-07-03T21:49:16.683Z,21.63
2023-07-03T21:51:45.790Z,21.63
2023-07-03T21:54:14.798Z,21.63
2023-07-03T21:56:43.839Z,21.61
2023-07-03T21:59:13.538Z,21.59
2023-07-03T22:01:44.409Z,21.60
2023-07-03T22:04:13.534Z,21.60
2023-07-03T22:06:42.753Z,21.58
2023-07-03T22:09:13.755Z,21.58
2023-07-03T22:11:44.562Z,21.58
2023-07-03T22:14:13.622Z,21.57
2023-07-03T22:16:44.037Z,21.56
2023-07-03T22:19:13.081Z,21.56
2023-07-03T22:21:42.110Z,21.56
2023-07-03T22:24:11.102Z,21.55
2023-07-03T22:26:40.257Z,21.55
2023-07-03T22:29:09.277Z,21.55
2023-07-03T22:31:38.298Z,21.54
2023-07-03T22:34:08.866Z,21.53
2023-07-03T22:36:37.954Z,21.51
2023-07-03T22:39:06.942Z,21.49
2023-07-03T22:41:35.965Z,21.48
2023-07-03T22:44:05.023Z,21.48
2023-07-03T22:46:34.606Z,21.50
2023-07-03T22:49:15.789Z,21.47
2023-07-03T22:51:54.335Z,21.47
2023-07-03T22:54:23.775Z,21.47
2023-07-03T22:56:52.811Z,21.46
2023-07-03T22:59:21.833Z,21.43
2023-07-03T23:01:54.166Z,21.45
2023-07-03T23:04:23.299Z,21.44
2023-07-03T23:06:53.783Z,21.43
2023-07-03T23:09:22.781Z,21.44
2023-07-03T23:11:52.366Z,21.42
2023-07-03T23:14:21.533Z,21.40
2023-07-03T23:16:50.892Z,21.40
2023-07-03T23:19:19.934Z,21.40
2023-07-03T23:21:51.111Z,21.40
2023-07-03T23:24:21.534Z,21.39
2023-07-03T23:26:53.245Z,21.36
2023-07-03T23:29:22.754Z,21.38
2023-07-03T23:31:51.795Z,21.35
2023-07-03T23:34:20.781Z,21.34
2023-07-03T23:36:52.174Z,21.36
2023-07-03T23:39:22.799Z,21.32
2023-07-03T23:41:53.728Z,21.32
2023-07-03T23:44:23.132Z,21.29
2023-07-03T23:46:52.255Z,21.32
2023-07-03T23:49:21.373Z,21.31
2023-07-03T23:51:53.229Z,21.28
2023-07-03T23:54:24.794Z,21.34
2023-07-03T23:56:54.474Z,21.29
2023-07-03T23:59:23.472Z,21.28
